sensor_id;sensor_type;location;lat;lon;timestamp;P1;durP1;ratioP1;P2;durP2;ratioP2
10847;SDS011;5477;48.806;9.154;2023-02-28T00:00:25;3.13;;;1.80;;
10847;SDS011;5477;48.806;9.154;2023-02-28T00:02:54;2.33;;;1.90;;
10847;SDS011;5477;48.806;9.154;2023-02-28T00:05:22;3.43;;;2.00;;
10847;SDS011;5477;48.806;9.154;2023-02-28T00:07:52;3.10;;;1.90;;
10847;SDS011;5477;48.806;9.154;2023-02-28T00:10:24;2.70;;;1.90;;
10847;SDS011;5477;48.806;9.154;2023-02-28T00:12:58;3.40;;;2.17;;
10847;SDS011;5477;48.806;9.154;2023-02-28T00:15:28;2.97;;;1.77;;
10847;SDS011;5477;48.806;9.154;2023-02-28T00:17:59;3.67;;;2.00;;
10847;SDS011;5477;48.806;9.154;2023-02-28T00:20:30;3.67;;;2.13;;
10847;SDS011;5477;48.806;9.154;2023-02-28T00:23:00;2.67;;;1.60;;
10847;SDS011;5477;48.806;9.154;2023-02-28T00:25:28;2.73;;;2.00;;
10847;SDS011;5477;48.806;9.154;2023-02-28T00:27:58;4.27;;;1.90;;
10847;SDS011;5477;48.806;9.154;2023-02-28T00:30:28;4.30;;;1.93;;
10847;SDS011;5477;48.806;9.154;2023-02-28T00:32:56;2.53;;;2.00;;
10847;SDS011;5477;48.806;9.154;2023-02-28T00:35:29;2.90;;;2.20;;
10847;SDS011;5477;48.806;9.154;2023-02-28T00:37:57;2.20;;;2.00;;
10847;SDS011;5477;48.806;9.154;2023-02-28T00:40:26;2.57;;;2.10;;
10847;SDS011;5477;48.806;9.154;2023-02-28T00:42:54;2.63;;;1.80;;
10847;SDS011;5477;48.806;9.154;2023-02-28T00:45:27;4.70;;;2.57;;
10847;SDS011;5477;48.806;9.154;2023-02-28T00:47:56;3.00;;;2.00;;
10847;SDS011;5477;48.806;9.154;2023-02-28T00:50:25;4.43;;;2.23;;
10847;SDS011;5477;48.806;9.154;2023-02-28T00:52:56;2.53;;;2.03;;
10847;SDS011;5477;48.806;9.154;2023-02-28T00:55:25;3.13;;;2.00;;
10847;SDS011;5477;48.806;9.154;2023-02-28T00:57:53;3.03;;;2.10;;
10847;SDS011;5477;48.806;9.154;2023-02-28T01:00:24;4.07;;;2.20;;
10847;SDS011;5477;48.806;9.154;2023-02-28T01:02:53;5.23;;;2.17;;
10847;SDS011;5477;48.806;9.154;2023-02-28T01:05:23;2.60;;;2.00;;
10847;SDS011;5477;48.806;9.154;2023-02-28T01:07:54;2.60;;;1.80;;
10847;SDS011;5477;48.806;9.154;2023-02-28T01:10:22;3.47;;;2.17;;
10847;SDS011;5477;48.806;9.154;2023-02-28T01:13:00;2.53;;;2.13;;
10847;SDS011;5477;48.806;9.154;2023-02-28T01:15:28;3.17;;;2.20;;
10847;SDS011;5477;48.806;9.154;2023-02-28T01:17:59;3.93;;;2.50;;
10847;SDS011;5477;48.806;9.154;2023-02-28T01:20:30;2.60;;;2.13;;
10847;SDS011;5477;48.806;9.154;2023-02-28T01:22:58;3.27;;;2.07;;
10847;SDS011;5477;48.806;9.154;2023-02-28T01:25:26;2.93;;;2.17;;
10847;SDS011;5477;48.806;9.154;2023-02-28T01:27:54;3.73;;;2.27;;
10847;SDS011;5477;48.806;9.154;2023-02-28T01:30:22;4.23;;;2.27;;
10847;SDS011;5477;48.806;9.154;2023-02-28T01:32:50;3.10;;;2.40;;
10847;SDS011;5477;48.806;9.154;2023-02-28T01:35:21;2.40;;;2.10;;
10847;SDS011;5477;48.806;9.154;2023-02-28T01:37:50;4.10;;;2.33;;
10847;SDS011;5477;48.806;9.154;2023-02-28T01:40:47;3.00;;;2.20;;
10847;SDS011;5477;48.806;9.154;2023-02-28T01:43:17;2.60;;;2.10;;
10847;SDS011;5477;48.806;9.154;2023-02-28T01:45:49;3.10;;;2.20;;
10847;SDS011;5477;48.806;9.154;2023-02-28T01:48:17;3.23;;;2.00;;
10847;SDS011;5477;48.806;9.154;2023-02-28T01:50:48;2.77;;;2.37;;
10847;SDS011;5477;48.806;9.154;2023-02-28T01:53:21;3.83;;;2.67;;
10847;SDS011;5477;48.806;9.154;2023-02-28T01:55:56;3.93;;;2.27;;
10847;SDS011;5477;48.806;9.154;2023-02-28T01:58:27;3.17;;;2.50;;
10847;SDS011;5477;48.806;9.154;2023-02-28T02:00:55;3.17;;;2.40;;
10847;SDS011;5477;48.806;9.154;2023-02-28T02:03:26;3.00;;;2.40;;
10847;SDS011;5477;48.806;9.154;2023-02-28T02:05:56;3.77;;;2.57;;
10847;SDS011;5477;48.806;9.154;2023-02-28T02:08:25;3.40;;;2.43;;
10847;SDS011;5477;48.806;9.154;2023-02-28T02:10:56;4.93;;;2.80;;
10847;SDS011;5477;48.806;9.154;2023-02-28T02:13:34;3.50;;;2.60;;
10847;SDS011;5477;48.806;9.154;2023-02-28T02:16:33;2.73;;;2.53;;
10847;SDS011;5477;48.806;9.154;2023-02-28T02:19:08;4.73;;;2.57;;
10847;SDS011;5477;48.806;9.154;2023-02-28T02:22:02;3.50;;;2.60;;
10847;SDS011;5477;48.806;9.154;2023-02-28T02:24:50;4.43;;;2.67;;
10847;SDS011;5477;48.806;9.154;2023-02-28T02:30:31;3.93;;;2.60;;
10847;SDS011;5477;48.806;9.154;2023-02-28T02:33:15;3.03;;;2.60;;
10847;SDS011;5477;48.806;9.154;2023-02-28T02:35:57;4.17;;;2.70;;
10847;SDS011;5477;48.806;9.154;2023-02-28T02:38:31;4.37;;;2.73;;
10847;SDS011;5477;48.806;9.154;2023-02-28T02:41:04;3.93;;;2.80;;
10847;SDS011;5477;48.806;9.154;2023-02-28T02:43:38;5.87;;;2.60;;
10847;SDS011;5477;48.806;9.154;2023-02-28T02:46:14;4.30;;;2.90;;
10847;SDS011;5477;48.806;9.154;2023-02-28T02:48:46;5.80;;;2.90;;
10847;SDS011;5477;48.806;9.154;2023-02-28T02:51:19;4.47;;;2.60;;
10847;SDS011;5477;48.806;9.154;2023-02-28T02:53:49;4.70;;;2.77;;
10847;SDS011;5477;48.806;9.154;2023-02-28T02:56:22;3.50;;;2.67;;
10847;SDS011;5477;48.806;9.154;2023-02-28T02:58:55;3.30;;;3.00;;
10847;SDS011;5477;48.806;9.154;2023-02-28T03:01:27;6.73;;;3.10;;
10847;SDS011;5477;48.806;9.154;2023-02-28T03:03:59;3.40;;;2.43;;
10847;SDS011;5477;48.806;9.154;2023-02-28T03:06:31;3.67;;;2.83;;
10847;SDS011;5477;48.806;9.154;2023-02-28T03:08:59;5.03;;;2.73;;
10847;SDS011;5477;48.806;9.154;2023-02-28T03:11:28;5.13;;;2.80;;
10847;SDS011;5477;48.806;9.154;2023-02-28T03:14:00;3.10;;;2.80;;
10847;SDS011;5477;48.806;9.154;2023-02-28T03:17:16;3.67;;;2.97;;
10847;SDS011;5477;48.806;9.154;2023-02-28T03:20:01;4.20;;;2.80;;
10847;SDS011;5477;48.806;9.154;2023-02-28T03:22:39;4.17;;;3.30;;
10847;SDS011;5477;48.806;9.154;2023-02-28T03:25:17;4.83;;;3.47;;
10847;SDS011;5477;48.806;9.154;2023-02-28T03:27:57;5.33;;;3.03;;
10847;SDS011;5477;48.806;9.154;2023-02-28T03:30:33;5.93;;;2.90;;
10847;SDS011;5477;48.806;9.154;2023-02-28T03:33:06;3.77;;;2.83;;
10847;SDS011;5477;48.806;9.154;2023-02-28T03:35:39;5.80;;;3.30;;
10847;SDS011;5477;48.806;9.154;2023-02-28T03:38:12;6.33;;;3.17;;
10847;SDS011;5477;48.806;9.154;2023-02-28T03:40:46;4.07;;;3.10;;
10847;SDS011;5477;48.806;9.154;2023-02-28T03:43:18;4.13;;;3.03;;
10847;SDS011;5477;48.806;9.154;2023-02-28T03:45:50;3.87;;;3.33;;
10847;SDS011;5477;48.806;9.154;2023-02-28T03:48:19;4.83;;;3.10;;
10847;SDS011;5477;48.806;9.154;2023-02-28T03:50:52;4.47;;;2.97;;
10847;SDS011;5477;48.806;9.154;2023-02-28T03:53:25;5.13;;;3.27;;
10847;SDS011;5477;48.806;9.154;2023-02-28T03:55:56;6.47;;;3.27;;
10847;SDS011;5477;48.806;9.154;2023-02-28T03:58:27;4.27;;;3.10;;
10847;SDS011;5477;48.806;9.154;2023-02-28T04:01:03;4.30;;;3.17;;
10847;SDS011;5477;48.806;9.154;2023-02-28T04:03:36;3.50;;;3.10;;
10847;SDS011;5477;48.806;9.154;2023-02-28T04:06:06;5.53;;;3.40;;
10847;SDS011;5477;48.806;9.154;2023-02-28T04:08:41;4.90;;;2.90;;
10847;SDS011;5477;48.806;9.154;2023-02-28T04:11:12;4.33;;;3.50;;
10847;SDS011;5477;48.806;9.154;2023-02-28T04:13:46;4.13;;;3.37;;
10847;SDS011;5477;48.806;9.154;2023-02-28T04:16:14;5.97;;;3.60;;
10847;SDS011;5477;48.806;9.154;2023-02-28T04:19:00;6.23;;;3.60;;
10847;SDS011;5477;48.806;9.154;2023-02-28T04:21:29;4.30;;;3.60;;
10847;SDS011;5477;48.806;9.154;2023-02-28T04:24:00;4.43;;;3.33;;
10847;SDS011;5477;48.806;9.154;2023-02-28T04:26:29;4.87;;;3.87;;
10847;SDS011;5477;48.806;9.154;2023-02-28T04:28:58;6.33;;;3.80;;
10847;SDS011;5477;48.806;9.154;2023-02-28T04:31:26;5.47;;;3.63;;
10847;SDS011;5477;48.806;9.154;2023-02-28T04:33:55;4.37;;;3.20;;
10847;SDS011;5477;48.806;9.154;2023-02-28T04:36:23;4.37;;;3.30;;
10847;SDS011;5477;48.806;9.154;2023-02-28T04:38:51;4.77;;;3.80;;
10847;SDS011;5477;48.806;9.154;2023-02-28T04:41:21;4.93;;;3.40;;
10847;SDS011;5477;48.806;9.154;2023-02-28T04:43:50;8.43;;;4.27;;
10847;SDS011;5477;48.806;9.154;2023-02-28T04:46:19;4.27;;;3.37;;
10847;SDS011;5477;48.806;9.154;2023-02-28T04:48:47;5.13;;;3.90;;
10847;SDS011;5477;48.806;9.154;2023-02-28T04:51:16;5.00;;;4.00;;
10847;SDS011;5477;48.806;9.154;2023-02-28T04:53:44;5.73;;;3.37;;
10847;SDS011;5477;48.806;9.154;2023-02-28T04:56:13;3.87;;;3.43;;
10847;SDS011;5477;48.806;9.154;2023-02-28T04:58:44;6.30;;;3.97;;
10847;SDS011;5477;48.806;9.154;2023-02-28T05:01:16;5.23;;;3.60;;
10847;SDS011;5477;48.806;9.154;2023-02-28T05:03:48;4.73;;;3.33;;
10847;SDS011;5477;48.806;9.154;2023-02-28T05:06:16;4.73;;;3.57;;
10847;SDS011;5477;48.806;9.154;2023-02-28T05:08:45;5.43;;;3.70;;
10847;SDS011;5477;48.806;9.154;2023-02-28T05:11:15;5.03;;;3.50;;
10847;SDS011;5477;48.806;9.154;2023-02-28T05:13:46;6.97;;;3.80;;
10847;SDS011;5477;48.806;9.154;2023-02-28T05:16:15;5.97;;;3.80;;
10847;SDS011;5477;48.806;9.154;2023-02-28T05:18:44;3.60;;;3.30;;
10847;SDS011;5477;48.806;9.154;2023-02-28T05:21:26;8.47;;;3.80;;
10847;SDS011;5477;48.806;9.154;2023-02-28T05:23:56;6.47;;;4.40;;
10847;SDS011;5477;48.806;9.154;2023-02-28T05:26:27;7.37;;;4.30;;
10847;SDS011;5477;48.806;9.154;2023-02-28T05:28:58;8.40;;;3.87;;
10847;SDS011;5477;48.806;9.154;2023-02-28T05:31:26;6.73;;;3.93;;
10847;SDS011;5477;48.806;9.154;2023-02-28T05:33:54;4.87;;;3.77;;
10847;SDS011;5477;48.806;9.154;2023-02-28T05:36:22;6.60;;;4.30;;
10847;SDS011;5477;48.806;9.154;2023-02-28T05:38:51;5.57;;;3.93;;
10847;SDS011;5477;48.806;9.154;2023-02-28T05:41:19;5.50;;;4.37;;
10847;SDS011;5477;48.806;9.154;2023-02-28T05:43:48;4.70;;;4.17;;
10847;SDS011;5477;48.806;9.154;2023-02-28T05:46:17;4.93;;;4.13;;
10847;SDS011;5477;48.806;9.154;2023-02-28T05:48:46;6.07;;;4.20;;
10847;SDS011;5477;48.806;9.154;2023-02-28T05:51:15;5.07;;;3.90;;
10847;SDS011;5477;48.806;9.154;2023-02-28T05:53:44;5.17;;;4.10;;
10847;SDS011;5477;48.806;9.154;2023-02-28T05:56:14;6.07;;;4.07;;
10847;SDS011;5477;48.806;9.154;2023-02-28T05:58:43;9.40;;;4.60;;
10847;SDS011;5477;48.806;9.154;2023-02-28T06:01:20;4.93;;;4.00;;
10847;SDS011;5477;48.806;9.154;2023-02-28T06:03:51;8.87;;;4.07;;
10847;SDS011;5477;48.806;9.154;2023-02-28T06:06:20;5.97;;;4.03;;
10847;SDS011;5477;48.806;9.154;2023-02-28T06:08:48;5.40;;;4.00;;
10847;SDS011;5477;48.806;9.154;2023-02-28T06:11:17;6.80;;;4.93;;
10847;SDS011;5477;48.806;9.154;2023-02-28T06:13:46;6.30;;;4.10;;
10847;SDS011;5477;48.806;9.154;2023-02-28T06:16:15;4.97;;;4.13;;
10847;SDS011;5477;48.806;9.154;2023-02-28T06:18:44;6.17;;;4.20;;
10847;SDS011;5477;48.806;9.154;2023-02-28T06:21:12;6.10;;;4.30;;
10847;SDS011;5477;48.806;9.154;2023-02-28T06:23:41;6.00;;;4.00;;
10847;SDS011;5477;48.806;9.154;2023-02-28T06:26:10;8.20;;;4.97;;
10847;SDS011;5477;48.806;9.154;2023-02-28T06:28:38;8.43;;;4.30;;
10847;SDS011;5477;48.806;9.154;2023-02-28T06:31:06;7.27;;;4.90;;
10847;SDS011;5477;48.806;9.154;2023-02-28T06:33:35;6.10;;;3.90;;
10847;SDS011;5477;48.806;9.154;2023-02-28T06:36:06;7.40;;;5.57;;
10847;SDS011;5477;48.806;9.154;2023-02-28T06:38:35;6.90;;;4.20;;
10847;SDS011;5477;48.806;9.154;2023-02-28T06:41:04;4.93;;;4.10;;
10847;SDS011;5477;48.806;9.154;2023-02-28T06:43:33;6.63;;;4.57;;
10847;SDS011;5477;48.806;9.154;2023-02-28T06:46:03;6.57;;;4.80;;
10847;SDS011;5477;48.806;9.154;2023-02-28T06:48:34;6.57;;;4.63;;
10847;SDS011;5477;48.806;9.154;2023-02-28T06:51:04;6.80;;;4.60;;
10847;SDS011;5477;48.806;9.154;2023-02-28T06:53:34;7.30;;;4.97;;
10847;SDS011;5477;48.806;9.154;2023-02-28T06:56:03;9.40;;;5.60;;
10847;SDS011;5477;48.806;9.154;2023-02-28T06:58:33;8.70;;;4.90;;
10847;SDS011;5477;48.806;9.154;2023-02-28T07:01:02;7.00;;;4.67;;
10847;SDS011;5477;48.806;9.154;2023-02-28T07:03:31;6.17;;;4.53;;
10847;SDS011;5477;48.806;9.154;2023-02-28T07:06:00;7.57;;;5.30;;
10847;SDS011;5477;48.806;9.154;2023-02-28T07:08:30;4.87;;;4.17;;
10847;SDS011;5477;48.806;9.154;2023-02-28T07:10:59;6.67;;;4.63;;
10847;SDS011;5477;48.806;9.154;2023-02-28T07:13:27;9.17;;;4.50;;
10847;SDS011;5477;48.806;9.154;2023-02-28T07:15:55;8.00;;;4.57;;
10847;SDS011;5477;48.806;9.154;2023-02-28T07:18:25;6.37;;;4.70;;
10847;SDS011;5477;48.806;9.154;2023-02-28T07:20:54;6.17;;;4.77;;
10847;SDS011;5477;48.806;9.154;2023-02-28T07:23:22;7.37;;;4.33;;
10847;SDS011;5477;48.806;9.154;2023-02-28T07:25:52;7.47;;;5.00;;
10847;SDS011;5477;48.806;9.154;2023-02-28T07:28:20;5.53;;;4.47;;
10847;SDS011;5477;48.806;9.154;2023-02-28T07:30:48;5.87;;;4.43;;
10847;SDS011;5477;48.806;9.154;2023-02-28T07:33:16;6.10;;;4.53;;
10847;SDS011;5477;48.806;9.154;2023-02-28T07:35:44;7.27;;;4.57;;
10847;SDS011;5477;48.806;9.154;2023-02-28T07:38:12;14.27;;;5.40;;
10847;SDS011;5477;48.806;9.154;2023-02-28T07:40:40;6.10;;;4.90;;
10847;SDS011;5477;48.806;9.154;2023-02-28T07:43:09;5.60;;;4.17;;
10847;SDS011;5477;48.806;9.154;2023-02-28T07:45:38;6.47;;;4.70;;
10847;SDS011;5477;48.806;9.154;2023-02-28T07:48:06;11.00;;;6.50;;
10847;SDS011;5477;48.806;9.154;2023-02-28T07:50:36;5.87;;;4.87;;
10847;SDS011;5477;48.806;9.154;2023-02-28T07:53:04;6.20;;;5.10;;
10847;SDS011;5477;48.806;9.154;2023-02-28T07:55:32;7.17;;;4.90;;
10847;SDS011;5477;48.806;9.154;2023-02-28T07:58:01;9.00;;;5.00;;
10847;SDS011;5477;48.806;9.154;2023-02-28T08:00:31;6.27;;;5.00;;
10847;SDS011;5477;48.806;9.154;2023-02-28T08:02:59;9.90;;;5.20;;
10847;SDS011;5477;48.806;9.154;2023-02-28T08:05:27;7.10;;;4.77;;
10847;SDS011;5477;48.806;9.154;2023-02-28T08:07:54;7.37;;;4.87;;
10847;SDS011;5477;48.806;9.154;2023-02-28T08:10:23;7.00;;;4.90;;
10847;SDS011;5477;48.806;9.154;2023-02-28T08:12:51;6.63;;;5.20;;
10847;SDS011;5477;48.806;9.154;2023-02-28T08:15:18;6.77;;;4.67;;
10847;SDS011;5477;48.806;9.154;2023-02-28T08:17:48;7.73;;;5.03;;
10847;SDS011;5477;48.806;9.154;2023-02-28T08:20:16;8.23;;;5.03;;
10847;SDS011;5477;48.806;9.154;2023-02-28T08:22:44;6.40;;;4.77;;
10847;SDS011;5477;48.806;9.154;2023-02-28T08:25:12;7.17;;;5.27;;
10847;SDS011;5477;48.806;9.154;2023-02-28T08:27:40;6.60;;;5.10;;
10847;SDS011;5477;48.806;9.154;2023-02-28T08:30:09;7.67;;;5.10;;
10847;SDS011;5477;48.806;9.154;2023-02-28T08:32:38;8.40;;;5.40;;
10847;SDS011;5477;48.806;9.154;2023-02-28T08:35:09;9.87;;;5.30;;
10847;SDS011;5477;48.806;9.154;2023-02-28T08:37:37;8.00;;;5.80;;
10847;SDS011;5477;48.806;9.154;2023-02-28T08:40:05;7.67;;;5.30;;
10847;SDS011;5477;48.806;9.154;2023-02-28T08:42:34;8.00;;;6.10;;
10847;SDS011;5477;48.806;9.154;2023-02-28T08:45:03;8.37;;;5.23;;
10847;SDS011;5477;48.806;9.154;2023-02-28T08:47:31;8.90;;;6.23;;
10847;SDS011;5477;48.806;9.154;2023-02-28T08:49:59;9.63;;;6.23;;
10847;SDS011;5477;48.806;9.154;2023-02-28T08:52:28;8.93;;;6.00;;
10847;SDS011;5477;48.806;9.154;2023-02-28T08:54:56;7.87;;;6.30;;
10847;SDS011;5477;48.806;9.154;2023-02-28T08:57:25;7.50;;;6.07;;
10847;SDS011;5477;48.806;9.154;2023-02-28T08:59:53;8.60;;;5.80;;
10847;SDS011;5477;48.806;9.154;2023-02-28T09:02:21;7.90;;;5.50;;
10847;SDS011;5477;48.806;9.154;2023-02-28T09:04:49;8.13;;;5.27;;
10847;SDS011;5477;48.806;9.154;2023-02-28T09:07:17;11.83;;;6.90;;
10847;SDS011;5477;48.806;9.154;2023-02-28T09:09:47;8.23;;;5.83;;
10847;SDS011;5477;48.806;9.154;2023-02-28T09:12:21;6.33;;;5.33;;
10847;SDS011;5477;48.806;9.154;2023-02-28T09:14:49;9.23;;;6.40;;
10847;SDS011;5477;48.806;9.154;2023-02-28T09:17:18;10.37;;;6.33;;
10847;SDS011;5477;48.806;9.154;2023-02-28T09:19:49;9.30;;;6.13;;
10847;SDS011;5477;48.806;9.154;2023-02-28T09:22:17;8.73;;;5.97;;
10847;SDS011;5477;48.806;9.154;2023-02-28T09:24:46;8.47;;;5.87;;
10847;SDS011;5477;48.806;9.154;2023-02-28T09:27:14;7.97;;;5.67;;
10847;SDS011;5477;48.806;9.154;2023-02-28T09:29:42;10.43;;;5.93;;
10847;SDS011;5477;48.806;9.154;2023-02-28T09:32:10;8.20;;;5.93;;
10847;SDS011;5477;48.806;9.154;2023-02-28T09:34:38;7.90;;;5.70;;
10847;SDS011;5477;48.806;9.154;2023-02-28T09:37:06;9.23;;;6.17;;
10847;SDS011;5477;48.806;9.154;2023-02-28T09:39:34;9.77;;;5.90;;
10847;SDS011;5477;48.806;9.154;2023-02-28T09:42:04;7.73;;;6.20;;
10847;SDS011;5477;48.806;9.154;2023-02-28T09:44:35;7.87;;;6.17;;
10847;SDS011;5477;48.806;9.154;2023-02-28T09:47:05;9.33;;;6.30;;
10847;SDS011;5477;48.806;9.154;2023-02-28T09:49:40;10.07;;;6.83;;
10847;SDS011;5477;48.806;9.154;2023-02-28T09:52:10;9.27;;;6.50;;
10847;SDS011;5477;48.806;9.154;2023-02-28T09:54:41;7.70;;;6.03;;
10847;SDS011;5477;48.806;9.154;2023-02-28T09:57:13;7.97;;;5.40;;
10847;SDS011;5477;48.806;9.154;2023-02-28T09:59:49;10.93;;;7.10;;
10847;SDS011;5477;48.806;9.154;2023-02-28T10:02:50;9.43;;;6.70;;
10847;SDS011;5477;48.806;9.154;2023-02-28T10:05:28;9.20;;;6.57;;
10847;SDS011;5477;48.806;9.154;2023-02-28T10:08:01;9.33;;;7.10;;
10847;SDS011;5477;48.806;9.154;2023-02-28T10:10:36;8.13;;;6.77;;
10847;SDS011;5477;48.806;9.154;2023-02-28T10:13:12;9.60;;;7.00;;
10847;SDS011;5477;48.806;9.154;2023-02-28T10:15:44;10.63;;;6.10;;
10847;SDS011;5477;48.806;9.154;2023-02-28T10:18:14;10.50;;;8.00;;
10847;SDS011;5477;48.806;9.154;2023-02-28T10:20:48;10.27;;;6.77;;
10847;SDS011;5477;48.806;9.154;2023-02-28T10:23:19;8.70;;;7.53;;
10847;SDS011;5477;48.806;9.154;2023-02-28T10:25:50;10.60;;;7.30;;
10847;SDS011;5477;48.806;9.154;2023-02-28T10:28:24;9.77;;;7.07;;
10847;SDS011;5477;48.806;9.154;2023-02-28T10:30:53;8.97;;;7.30;;
10847;SDS011;5477;48.806;9.154;2023-02-28T10:33:22;10.03;;;7.03;;
10847;SDS011;5477;48.806;9.154;2023-02-28T10:35:52;10.03;;;7.73;;
10847;SDS011;5477;48.806;9.154;2023-02-28T10:38:21;9.13;;;7.10;;
10847;SDS011;5477;48.806;9.154;2023-02-28T10:40:50;9.17;;;7.33;;
10847;SDS011;5477;48.806;9.154;2023-02-28T10:43:29;9.63;;;6.50;;
10847;SDS011;5477;48.806;9.154;2023-02-28T10:45:58;7.27;;;5.93;;
10847;SDS011;5477;48.806;9.154;2023-02-28T10:48:31;8.87;;;6.77;;
10847;SDS011;5477;48.806;9.154;2023-02-28T10:51:01;7.87;;;6.77;;
10847;SDS011;5477;48.806;9.154;2023-02-28T10:53:37;8.30;;;6.93;;
10847;SDS011;5477;48.806;9.154;2023-02-28T10:56:26;8.33;;;7.10;;
10847;SDS011;5477;48.806;9.154;2023-02-28T10:58:57;10.53;;;7.03;;
10847;SDS011;5477;48.806;9.154;2023-02-28T11:01:34;9.63;;;7.27;;
10847;SDS011;5477;48.806;9.154;2023-02-28T11:04:16;8.87;;;6.70;;
10847;SDS011;5477;48.806;9.154;2023-02-28T11:06:47;12.80;;;8.20;;
10847;SDS011;5477;48.806;9.154;2023-02-28T11:09:25;11.20;;;8.07;;
10847;SDS011;5477;48.806;9.154;2023-02-28T11:11:56;10.30;;;7.70;;
10847;SDS011;5477;48.806;9.154;2023-02-28T11:14:26;10.23;;;7.93;;
10847;SDS011;5477;48.806;9.154;2023-02-28T11:16:57;10.30;;;8.17;;
10847;SDS011;5477;48.806;9.154;2023-02-28T11:19:29;11.63;;;10.43;;
10847;SDS011;5477;48.806;9.154;2023-02-28T11:22:02;14.30;;;9.93;;
10847;SDS011;5477;48.806;9.154;2023-02-28T11:24:33;10.93;;;8.87;;
10847;SDS011;5477;48.806;9.154;2023-02-28T11:27:04;8.53;;;7.63;;
10847;SDS011;5477;48.806;9.154;2023-02-28T11:29:35;10.07;;;7.90;;
10847;SDS011;5477;48.806;9.154;2023-02-28T11:32:16;9.60;;;7.57;;
10847;SDS011;5477;48.806;9.154;2023-02-28T11:34:47;9.53;;;7.93;;
10847;SDS011;5477;48.806;9.154;2023-02-28T11:37:29;9.70;;;7.17;;
10847;SDS011;5477;48.806;9.154;2023-02-28T11:39:59;8.33;;;7.33;;
10847;SDS011;5477;48.806;9.154;2023-02-28T11:45:33;11.27;;;9.47;;
10847;SDS011;5477;48.806;9.154;2023-02-28T11:48:12;11.67;;;8.13;;
10847;SDS011;5477;48.806;9.154;2023-02-28T11:50:47;8.93;;;7.43;;
10847;SDS011;5477;48.806;9.154;2023-02-28T11:53:32;10.50;;;7.67;;
10847;SDS011;5477;48.806;9.154;2023-02-28T11:56:16;7.70;;;6.67;;
10847;SDS011;5477;48.806;9.154;2023-02-28T11:58:52;9.80;;;7.33;;
10847;SDS011;5477;48.806;9.154;2023-02-28T12:01:35;9.23;;;7.77;;
10847;SDS011;5477;48.806;9.154;2023-02-28T12:04:17;8.70;;;7.77;;
10847;SDS011;5477;48.806;9.154;2023-02-28T12:06:54;9.33;;;7.67;;
10847;SDS011;5477;48.806;9.154;2023-02-28T12:09:32;9.07;;;7.07;;
10847;SDS011;5477;48.806;9.154;2023-02-28T12:12:11;8.50;;;6.87;;
10847;SDS011;5477;48.806;9.154;2023-02-28T12:14:57;9.50;;;7.63;;
10847;SDS011;5477;48.806;9.154;2023-02-28T12:17:48;7.93;;;6.70;;
10847;SDS011;5477;48.806;9.154;2023-02-28T12:20:26;7.73;;;6.93;;
10847;SDS011;5477;48.806;9.154;2023-02-28T12:23:05;7.83;;;7.03;;
10847;SDS011;5477;48.806;9.154;2023-02-28T12:28:38;8.77;;;6.90;;
10847;SDS011;5477;48.806;9.154;2023-02-28T12:31:09;8.57;;;7.03;;
10847;SDS011;5477;48.806;9.154;2023-02-28T12:33:43;7.67;;;6.87;;
10847;SDS011;5477;48.806;9.154;2023-02-28T12:36:17;8.63;;;7.40;;
10847;SDS011;5477;48.806;9.154;2023-02-28T12:38:48;8.90;;;7.43;;
10847;SDS011;5477;48.806;9.154;2023-02-28T12:41:26;7.57;;;6.77;;
10847;SDS011;5477;48.806;9.154;2023-02-28T12:44:00;17.93;;;12.20;;
10847;SDS011;5477;48.806;9.154;2023-02-28T12:46:33;10.13;;;8.30;;
10847;SDS011;5477;48.806;9.154;2023-02-28T12:49:06;8.50;;;7.60;;
10847;SDS011;5477;48.806;9.154;2023-02-28T12:51:38;9.67;;;7.53;;
10847;SDS011;5477;48.806;9.154;2023-02-28T12:54:12;8.50;;;7.60;;
10847;SDS011;5477;48.806;9.154;2023-02-28T12:56:47;8.57;;;7.63;;
10847;SDS011;5477;48.806;9.154;2023-02-28T12:59:22;10.70;;;7.60;;
10847;SDS011;5477;48.806;9.154;2023-02-28T13:02:09;12.20;;;7.97;;
10847;SDS011;5477;48.806;9.154;2023-02-28T13:05:07;8.20;;;7.07;;
10847;SDS011;5477;48.806;9.154;2023-02-28T13:07:53;7.47;;;6.60;;
10847;SDS011;5477;48.806;9.154;2023-02-28T13:10:44;8.37;;;6.30;;
10847;SDS011;5477;48.806;9.154;2023-02-28T13:13:17;9.37;;;6.73;;
10847;SDS011;5477;48.806;9.154;2023-02-28T13:15:56;9.93;;;6.60;;
10847;SDS011;5477;48.806;9.154;2023-02-28T13:18:31;11.43;;;7.20;;
10847;SDS011;5477;48.806;9.154;2023-02-28T13:21:04;12.20;;;7.57;;
10847;SDS011;5477;48.806;9.154;2023-02-28T13:23:38;8.43;;;6.83;;
10847;SDS011;5477;48.806;9.154;2023-02-28T13:29:28;7.43;;;6.23;;
10847;SDS011;5477;48.806;9.154;2023-02-28T13:32:19;8.13;;;6.77;;
10847;SDS011;5477;48.806;9.154;2023-02-28T13:38:13;7.70;;;6.63;;
10847;SDS011;5477;48.806;9.154;2023-02-28T13:40:50;9.57;;;7.00;;
10847;SDS011;5477;48.806;9.154;2023-02-28T13:43:18;14.03;;;9.90;;
10847;SDS011;5477;48.806;9.154;2023-02-28T13:46:08;14.57;;;9.10;;
10847;SDS011;5477;48.806;9.154;2023-02-28T13:48:39;13.03;;;8.40;;
10847;SDS011;5477;48.806;9.154;2023-02-28T13:54:17;8.53;;;6.67;;
10847;SDS011;5477;48.806;9.154;2023-02-28T13:56:54;10.40;;;6.83;;
10847;SDS011;5477;48.806;9.154;2023-02-28T13:59:33;9.00;;;6.77;;
10847;SDS011;5477;48.806;9.154;2023-02-28T14:02:22;7.63;;;6.63;;
10847;SDS011;5477;48.806;9.154;2023-02-28T14:05:02;8.37;;;6.63;;
10847;SDS011;5477;48.806;9.154;2023-02-28T14:07:37;7.60;;;6.50;;
10847;SDS011;5477;48.806;9.154;2023-02-28T14:10:15;7.67;;;6.60;;
10847;SDS011;5477;48.806;9.154;2023-02-28T14:12:58;9.37;;;6.83;;
10847;SDS011;5477;48.806;9.154;2023-02-28T14:15:30;7.00;;;5.93;;
10847;SDS011;5477;48.806;9.154;2023-02-28T14:18:15;6.93;;;6.23;;
10847;SDS011;5477;48.806;9.154;2023-02-28T14:20:47;9.93;;;6.83;;
10847;SDS011;5477;48.806;9.154;2023-02-28T14:23:20;8.30;;;6.83;;
10847;SDS011;5477;48.806;9.154;2023-02-28T14:26:02;8.70;;;7.13;;
10847;SDS011;5477;48.806;9.154;2023-02-28T14:28:42;7.23;;;6.50;;
10847;SDS011;5477;48.806;9.154;2023-02-28T14:31:23;8.53;;;6.93;;
10847;SDS011;5477;48.806;9.154;2023-02-28T14:34:04;8.03;;;6.97;;
10847;SDS011;5477;48.806;9.154;2023-02-28T14:36:44;7.83;;;6.47;;
10847;SDS011;5477;48.806;9.154;2023-02-28T14:39:13;8.83;;;6.90;;
10847;SDS011;5477;48.806;9.154;2023-02-28T14:41:45;7.50;;;6.70;;
10847;SDS011;5477;48.806;9.154;2023-02-28T14:44:15;10.67;;;6.90;;
10847;SDS011;5477;48.806;9.154;2023-02-28T14:46:45;9.10;;;6.57;;
10847;SDS011;5477;48.806;9.154;2023-02-28T14:49:17;7.60;;;6.83;;
10847;SDS011;5477;48.806;9.154;2023-02-28T14:51:48;8.33;;;6.83;;
10847;SDS011;5477;48.806;9.154;2023-02-28T14:54:18;10.83;;;7.20;;
10847;SDS011;5477;48.806;9.154;2023-02-28T14:56:51;7.73;;;6.93;;
10847;SDS011;5477;48.806;9.154;2023-02-28T14:59:23;8.90;;;7.00;;
10847;SDS011;5477;48.806;9.154;2023-02-28T15:04:53;8.73;;;6.97;;
10847;SDS011;5477;48.806;9.154;2023-02-28T15:07:23;7.80;;;6.93;;
10847;SDS011;5477;48.806;9.154;2023-02-28T15:10:13;8.80;;;7.03;;
10847;SDS011;5477;48.806;9.154;2023-02-28T15:12:48;9.73;;;8.30;;
10847;SDS011;5477;48.806;9.154;2023-02-28T15:15:20;11.93;;;9.17;;
10847;SDS011;5477;48.806;9.154;2023-02-28T15:18:05;11.23;;;8.80;;
10847;SDS011;5477;48.806;9.154;2023-02-28T15:20:36;11.20;;;7.57;;
10847;SDS011;5477;48.806;9.154;2023-02-28T15:23:07;10.07;;;7.47;;
10847;SDS011;5477;48.806;9.154;2023-02-28T15:25:36;11.03;;;8.63;;
10847;SDS011;5477;48.806;9.154;2023-02-28T15:28:09;13.23;;;9.40;;
10847;SDS011;5477;48.806;9.154;2023-02-28T15:30:49;11.97;;;8.87;;
10847;SDS011;5477;48.806;9.154;2023-02-28T15:33:20;9.93;;;8.87;;
10847;SDS011;5477;48.806;9.154;2023-02-28T15:35:49;9.67;;;8.23;;
10847;SDS011;5477;48.806;9.154;2023-02-28T15:38:18;8.97;;;7.40;;
10847;SDS011;5477;48.806;9.154;2023-02-28T15:40:51;11.13;;;8.20;;
10847;SDS011;5477;48.806;9.154;2023-02-28T15:43:26;8.83;;;6.93;;
10847;SDS011;5477;48.806;9.154;2023-02-28T15:45:56;9.20;;;7.80;;
10847;SDS011;5477;48.806;9.154;2023-02-28T15:48:27;11.47;;;8.57;;
10847;SDS011;5477;48.806;9.154;2023-02-28T15:51:01;11.97;;;8.20;;
10847;SDS011;5477;48.806;9.154;2023-02-28T15:53:33;11.57;;;7.33;;